sensor_id;sensor_type;location;lat;lon;timestamp;temperature;humidity
34833;DHT22;55941;50.800;4.342;2023-07-08T00:00:41;22.40;91.80
34833;DHT22;55941;50.800;4.342;2023-07-08T00:03:07;22.30;91.80
34833;DHT22;55941;50.800;4.342;2023-07-08T00:05:33;22.20;92.00
34833;DHT22;55941;50.800;4.342;2023-07-08T00:07:58;22.20;92.20
34833;DHT22;55941;50.800;4.342;2023-07-08T00:10:26;22.20;92.30
34833;DHT22;55941;50.800;4.342;2023-07-08T00:12:54;22.00;93.00
34833;DHT22;55941;50.800;4.342;2023-07-08T00:15:25;21.80;93.50
34833;DHT22;55941;50.800;4.342;2023-07-08T00:17:52;21.60;94.00
34833;DHT22;55941;50.800;4.342;2023-07-08T00:20:22;21.60;94.40
34833;DHT22;55941;50.800;4.342;2023-07-08T00:22:48;21.60;94.70
34833;DHT22;55941;50.800;4.342;2023-07-08T00:25:17;21.40;95.20
34833;DHT22;55941;50.800;4.342;2023-07-08T00:27:45;21.40;95.50
34833;DHT22;55941;50.800;4.342;2023-07-08T00:30:22;21.30;95.90
34833;DHT22;55941;50.800;4.342;2023-07-08T00:32:48;21.50;95.80
34833;DHT22;55941;50.800;4.342;2023-07-08T00:35:21;21.50;96.10
34833;DHT22;55941;50.800;4.342;2023-07-08T00:37:48;21.40;96.00
34833;DHT22;55941;50.800;4.342;2023-07-08T00:40:19;21.30;96.30
34833;DHT22;55941;50.800;4.342;2023-07-08T00:42:47;21.20;96.50
34833;DHT22;55941;50.800;4.342;2023-07-08T00:48:28;21.20;96.90
34833;DHT22;55941;50.800;4.342;2023-07-08T00:50:51;21.20;96.90
34833;DHT22;55941;50.800;4.342;2023-07-08T00:53:32;21.20;96.90
34833;DHT22;55941;50.800;4.342;2023-07-08T00:56:08;21.20;97.40
34833;DHT22;55941;50.800;4.342;2023-07-08T00:58:46;21.00;97.70
34833;DHT22;55941;50.800;4.342;2023-07-08T01:01:13;20.90;98.20
34833;DHT22;55941;50.800;4.342;2023-07-08T01:03:49;21.10;98.20
34833;DHT22;55941;50.800;4.342;2023-07-08T01:06:17;21.10;98.40
34833;DHT22;55941;50.800;4.342;2023-07-08T01:08:44;20.90;98.70
34833;DHT22;55941;50.800;4.342;2023-07-08T01:11:11;20.90;98.80
34833;DHT22;55941;50.800;4.342;2023-07-08T01:13:40;20.90;99.20
34833;DHT22;55941;50.800;4.342;2023-07-08T01:16:08;20.70;99.60
34833;DHT22;55941;50.800;4.342;2023-07-08T01:18:34;20.60;99.90
34833;DHT22;55941;50.800;4.342;2023-07-08T01:21:05;20.60;99.90
34833;DHT22;55941;50.800;4.342;2023-07-08T01:23:51;20.70;99.90
34833;DHT22;55941;50.800;4.342;2023-07-08T01:26:17;20.80;99.80
34833;DHT22;55941;50.800;4.342;2023-07-08T01:28:43;20.70;99.90
34833;DHT22;55941;50.800;4.342;2023-07-08T01:31:09;20.60;99.90
34833;DHT22;55941;50.800;4.342;2023-07-08T01:33:35;20.50;99.90
34833;DHT22;55941;50.800;4.342;2023-07-08T01:36:00;20.60;99.90
34833;DHT22;55941;50.800;4.342;2023-07-08T01:38:27;20.40;99.90
34833;DHT22;55941;50.800;4.342;2023-07-08T01:40:57;20.40;99.90
34833;DHT22;55941;50.800;4.342;2023-07-08T01:43:23;20.40;99.90
34833;DHT22;55941;50.800;4.342;2023-07-08T01:45:50;20.50;99.90
34833;DHT22;55941;50.800;4.342;2023-07-08T01:48:20;20.60;99.90
34833;DHT22;55941;50.800;4.342;2023-07-08T01:50:51;20.60;99.90
34833;DHT22;55941;50.800;4.342;2023-07-08T01:53:27;20.50;99.90
34833;DHT22;55941;50.800;4.342;2023-07-08T01:55:53;20.50;99.90
34833;DHT22;55941;50.800;4.342;2023-07-08T01:58:19;20.50;99.90
34833;DHT22;55941;50.800;4.342;2023-07-08T02:00:44;20.50;99.90
34833;DHT22;55941;50.800;4.342;2023-07-08T02:03:14;20.40;99.90
34833;DHT22;55941;50.800;4.342;2023-07-08T02:05:39;20.40;99.90
34833;DHT22;55941;50.800;4.342;2023-07-08T02:08:05;20.40;99.90
34833;DHT22;55941;50.800;4.342;2023-07-08T02:10:31;20.30;99.90
34833;DHT22;55941;50.800;4.342;2023-07-08T02:12:56;20.30;99.90
34833;DHT22;55941;50.800;4.342;2023-07-08T02:15:22;20.30;99.90
34833;DHT22;55941;50.800;4.342;2023-07-08T02:17:48;20.20;99.90
34833;DHT22;55941;50.800;4.342;2023-07-08T02:20:15;20.40;99.90
34833;DHT22;55941;50.800;4.342;2023-07-08T02:22:41;20.40;99.90
34833;DHT22;55941;50.800;4.342;2023-07-08T02:25:07;20.40;99.90
34833;DHT22;55941;50.800;4.342;2023-07-08T02:27:35;20.20;99.90
34833;DHT22;55941;50.800;4.342;2023-07-08T02:30:00;20.20;99.90
34833;DHT22;55941;50.800;4.342;2023-07-08T02:32:26;20.20;99.90
34833;DHT22;55941;50.800;4.342;2023-07-08T02:34:52;20.20;99.90
34833;DHT22;55941;50.800;4.342;2023-07-08T02:37:18;20.10;99.90
34833;DHT22;55941;50.800;4.342;2023-07-08T02:39:43;20.10;99.90
34833;DHT22;55941;50.800;4.342;2023-07-08T02:42:09;20.00;99.90
34833;DHT22;55941;50.800;4.342;2023-07-08T02:44:35;20.00;99.90
34833;DHT22;55941;50.800;4.342;2023-07-08T02:47:00;19.90;99.90
34833;DHT22;55941;50.800;4.342;2023-07-08T02:49:26;20.10;99.90
34833;DHT22;55941;50.800;4.342;2023-07-08T02:51:52;20.00;99.90
34833;DHT22;55941;50.800;4.342;2023-07-08T02:54:17;20.00;99.90
34833;DHT22;55941;50.800;4.342;2023-07-08T02:56:43;19.90;99.90
34833;DHT22;55941;50.800;4.342;2023-07-08T02:59:09;19.90;99.90
34833;DHT22;55941;50.800;4.342;2023-07-08T03:01:35;19.90;99.90
34833;DHT22;55941;50.800;4.342;2023-07-08T03:04:10;19.90;99.90
34833;DHT22;55941;50.800;4.342;2023-07-08T03:06:40;19.80;99.90
34833;DHT22;55941;50.800;4.342;2023-07-08T03:09:05;19.80;99.90
34833;DHT22;55941;50.800;4.342;2023-07-08T03:11:31;19.80;99.90
34833;DHT22;55941;50.800;4.342;2023-07-08T03:13:57;19.90;99.90
34833;DHT22;55941;50.800;4.342;2023-07-08T03:16:22;19.90;99.90
34833;DHT22;55941;50.800;4.342;2023-07-08T03:18:48;19.90;99.90
34833;DHT22;55941;50.800;4.342;2023-07-08T03:21:16;20.00;99.90
34833;DHT22;55941;50.800;4.342;2023-07-08T03:23:42;20.00;99.90
34833;DHT22;55941;50.800;4.342;2023-07-08T03:26:11;20.00;99.90
34833;DHT22;55941;50.800;4.342;2023-07-08T03:28:38;20.00;99.90
34833;DHT22;55941;50.800;4.342;2023-07-08T03:31:03;20.00;99.90
34833;DHT22;55941;50.800;4.342;2023-07-08T03:33:29;20.00;99.90
34833;DHT22;55941;50.800;4.342;2023-07-08T03:35:55;20.00;99.90
34833;DHT22;55941;50.800;4.342;2023-07-08T03:38:21;19.90;99.90
34833;DHT22;55941;50.800;4.342;2023-07-08T03:40:47;19.90;99.90
34833;DHT22;55941;50.800;4.342;2023-07-08T03:43:13;19.90;99.90
34833;DHT22;55941;50.800;4.342;2023-07-08T03:45:38;19.90;99.90
34833;DHT22;55941;50.800;4.342;2023-07-08T03:48:04;19.90;99.90
34833;DHT22;55941;50.800;4.342;2023-07-08T03:50:30;19.90;99.90
34833;DHT22;55941;50.800;4.342;2023-07-08T03:52:56;19.90;99.90
34833;DHT22;55941;50.800;4.342;2023-07-08T03:55:22;19.80;99.90
34833;DHT22;55941;50.800;4.342;2023-07-08T03:57:48;19.90;99.90
34833;DHT22;55941;50.800;4.342;2023-07-08T04:00:14;19.90;99.90
34833;DHT22;55941;50.800;4.342;2023-07-08T04:02:44;19.90;99.90
34833;DHT22;55941;50.800;4.342;2023-07-08T04:05:15;19.90;99.90
34833;DHT22;55941;50.800;4.342;2023-07-08T04:07:41;19.80;99.90
34833;DHT22;55941;50.800;4.342;2023-07-08T04:10:08;19.90;99.90
34833;DHT22;55941;50.800;4.342;2023-07-08T04:12:34;19.80;99.90
34833;DHT22;55941;50.800;4.342;2023-07-08T04:15:00;19.80;99.90
34833;DHT22;55941;50.800;4.342;2023-07-08T04:17:27;19.80;99.90
34833;DHT22;55941;50.800;4.342;2023-07-08T04:19:52;19.80;99.90
34833;DHT22;55941;50.800;4.342;2023-07-08T04:22:18;19.80;99.90
34833;DHT22;55941;50.800;4.342;2023-07-08T04:24:44;19.90;99.90
34833;DHT22;55941;50.800;4.342;2023-07-08T04:27:14;19.90;99.90
34833;DHT22;55941;50.800;4.342;2023-07-08T04:29:41;19.90;99.90
34833;DHT22;55941;50.800;4.342;2023-07-08T04:32:07;19.80;99.90
34833;DHT22;55941;50.800;4.342;2023-07-08T04:34:33;19.80;99.90
34833;DHT22;55941;50.800;4.342;2023-07-08T04:36:58;19.80;99.90
34833;DHT22;55941;50.800;4.342;2023-07-08T04:39:24;19.90;99.90
34833;DHT22;55941;50.800;4.342;2023-07-08T04:41:50;20.00;99.90
34833;DHT22;55941;50.800;4.342;2023-07-08T04:44:15;20.00;99.90
34833;DHT22;55941;50.800;4.342;2023-07-08T04:46:57;20.10;99.90
34833;DHT22;55941;50.800;4.342;2023-07-08T04:49:24;20.10;99.90
34833;DHT22;55941;50.800;4.342;2023-07-08T04:51:50;20.00;99.90
34833;DHT22;55941;50.800;4.342;2023-07-08T04:54:17;20.00;99.90
34833;DHT22;55941;50.800;4.342;2023-07-08T04:56:45;20.00;99.90
34833;DHT22;55941;50.800;4.342;2023-07-08T04:59:17;20.00;99.90
34833;DHT22;55941;50.800;4.342;2023-07-08T05:01:43;20.10;99.90
34833;DHT22;55941;50.800;4.342;2023-07-08T05:04:13;20.10;99.90
34833;DHT22;55941;50.800;4.342;2023-07-08T05:06:39;20.10;99.90
34833;DHT22;55941;50.800;4.342;2023-07-08T05:09:05;20.10;99.90
34833;DHT22;55941;50.800;4.342;2023-07-08T05:11:31;20.30;99.90
34833;DHT22;55941;50.800;4.342;2023-07-08T05:13:57;20.50;99.90
34833;DHT22;55941;50.800;4.342;2023-07-08T05:16:24;20.60;99.90
34833;DHT22;55941;50.800;4.342;2023-07-08T05:18:50;20.60;99.90
34833;DHT22;55941;50.800;4.342;2023-07-08T05:21:17;20.70;99.90
34833;DHT22;55941;50.800;4.342;2023-07-08T05:23:44;20.80;99.90
34833;DHT22;55941;50.800;4.342;2023-07-08T05:26:10;21.00;99.90
34833;DHT22;55941;50.800;4.342;2023-07-08T05:28:36;21.10;99.90
34833;DHT22;55941;50.800;4.342;2023-07-08T05:31:02;21.40;99.90
34833;DHT22;55941;50.800;4.342;2023-07-08T05:33:30;21.60;99.90
34833;DHT22;55941;50.800;4.342;2023-07-08T05:35:57;21.70;99.90
34833;DHT22;55941;50.800;4.342;2023-07-08T05:38:23;21.80;99.90
34833;DHT22;55941;50.800;4.342;2023-07-08T05:40:50;21.90;99.90
34833;DHT22;55941;50.800;4.342;2023-07-08T05:43:17;21.90;99.90
34833;DHT22;55941;50.800;4.342;2023-07-08T05:45:43;22.00;99.90
34833;DHT22;55941;50.800;4.342;2023-07-08T05:48:09;22.00;99.90
34833;DHT22;55941;50.800;4.342;2023-07-08T05:50:35;22.00;99.90
34833;DHT22;55941;50.800;4.342;2023-07-08T05:53:00;22.10;99.90
34833;DHT22;55941;50.800;4.342;2023-07-08T05:55:26;22.10;99.90
34833;DHT22;55941;50.800;4.342;2023-07-08T05:57:52;22.10;99.90
34833;DHT22;55941;50.800;4.342;2023-07-08T06:00:18;22.10;99.90
34833;DHT22;55941;50.800;4.342;2023-07-08T06:02:43;22.20;99.90
34833;DHT22;55941;50.800;4.342;2023-07-08T06:05:09;22.20;99.90
34833;DHT22;55941;50.800;4.342;2023-07-08T06:07:35;22.30;99.90
34833;DHT22;55941;50.800;4.342;2023-07-08T06:10:00;22.40;99.90
34833;DHT22;55941;50.800;4.342;2023-07-08T06:12:26;22.50;99.90
34833;DHT22;55941;50.800;4.342;2023-07-08T06:14:52;22.50;99.90
34833;DHT22;55941;50.800;4.342;2023-07-08T06:17:18;22.50;99.90
34833;DHT22;55941;50.800;4.342;2023-07-08T06:19:44;22.60;99.90
34833;DHT22;55941;50.800;4.342;2023-07-08T06:22:10;22.60;99.90
34833;DHT22;55941;50.800;4.342;2023-07-08T06:24:36;22.70;99.90
34833;DHT22;55941;50.800;4.342;2023-07-08T06:27:01;22.80;99.90
34833;DHT22;55941;50.800;4.342;2023-07-08T06:29:27;22.90;99.90
34833;DHT22;55941;50.800;4.342;2023-07-08T06:31:54;22.90;99.90
34833;DHT22;55941;50.800;4.342;2023-07-08T06:34:20;23.00;99.90
34833;DHT22;55941;50.800;4.342;2023-07-08T06:36:48;23.10;99.90
34833;DHT22;55941;50.800;4.342;2023-07-08T06:39:14;23.20;99.90
34833;DHT22;55941;50.800;4.342;2023-07-08T06:41:40;23.40;99.90
34833;DHT22;55941;50.800;4.342;2023-07-08T06:44:05;23.50;99.90
34833;DHT22;55941;50.800;4.342;2023-07-08T06:46:31;23.50;99.90
34833;DHT22;55941;50.800;4.342;2023-07-08T06:48:57;23.60;99.90
34833;DHT22;55941;50.800;4.342;2023-07-08T06:51:22;23.70;99.90
34833;DHT22;55941;50.800;4.342;2023-07-08T06:53:48;23.80;99.90
34833;DHT22;55941;50.800;4.342;2023-07-08T06:56:14;23.90;99.90
34833;DHT22;55941;50.800;4.342;2023-07-08T06:58:39;24.20;99.90
34833;DHT22;55941;50.800;4.342;2023-07-08T07:01:05;24.30;99.90
34833;DHT22;55941;50.800;4.342;2023-07-08T07:03:31;24.30;99.90
34833;DHT22;55941;50.800;4.342;2023-07-08T07:05:56;24.40;99.90
34833;DHT22;55941;50.800;4.342;2023-07-08T07:08:22;24.50;99.90
34833;DHT22;55941;50.800;4.342;2023-07-08T07:10:48;24.70;99.90
34833;DHT22;55941;50.800;4.342;2023-07-08T07:13:14;24.80;99.20
34833;DHT22;55941;50.800;4.342;2023-07-08T07:15:39;25.00;99.10
34833;DHT22;55941;50.800;4.342;2023-07-08T07:18:05;25.00;98.50
34833;DHT22;55941;50.800;4.342;2023-07-08T07:20:31;25.10;98.20
34833;DHT22;55941;50.800;4.342;2023-07-08T07:22:57;25.20;98.60
34833;DHT22;55941;50.800;4.342;2023-07-08T07:25:22;25.30;98.50
34833;DHT22;55941;50.800;4.342;2023-07-08T07:27:48;25.40;98.20
34833;DHT22;55941;50.800;4.342;2023-07-08T07:30:14;25.50;97.60
34833;DHT22;55941;50.800;4.342;2023-07-08T07:32:42;25.70;96.90
34833;DHT22;55941;50.800;4.342;2023-07-08T07:35:09;25.80;96.30
34833;DHT22;55941;50.800;4.342;2023-07-08T07:37:39;25.90;96.00
34833;DHT22;55941;50.800;4.342;2023-07-08T07:40:10;26.00;95.70
34833;DHT22;55941;50.800;4.342;2023-07-08T07:42:38;26.20;95.40
34833;DHT22;55941;50.800;4.342;2023-07-08T07:45:05;26.20;94.00
34833;DHT22;55941;50.800;4.342;2023-07-08T07:47:31;26.20;95.00
34833;DHT22;55941;50.800;4.342;2023-07-08T07:49:57;26.50;93.50
34833;DHT22;55941;50.800;4.342;2023-07-08T07:52:24;26.60;93.50
34833;DHT22;55941;50.800;4.342;2023-07-08T07:54:54;26.60;93.60
34833;DHT22;55941;50.800;4.342;2023-07-08T07:57:20;26.80;90.60
34833;DHT22;55941;50.800;4.342;2023-07-08T07:59:46;26.90;91.20
34833;DHT22;55941;50.800;4.342;2023-07-08T08:02:12;27.00;90.90
34833;DHT22;55941;50.800;4.342;2023-07-08T08:04:38;27.00;90.80
34833;DHT22;55941;50.800;4.342;2023-07-08T08:07:04;27.10;91.50
34833;DHT22;55941;50.800;4.342;2023-07-08T08:09:30;27.20;91.20
34833;DHT22;55941;50.800;4.342;2023-07-08T08:11:55;27.30;90.90
34833;DHT22;55941;50.800;4.342;2023-07-08T08:14:21;27.40;90.80
34833;DHT22;55941;50.800;4.342;2023-07-08T08:16:47;27.40;91.30
34833;DHT22;55941;50.800;4.342;2023-07-08T08:19:13;27.50;91.50
34833;DHT22;55941;50.800;4.342;2023-07-08T08:21:39;27.60;90.20
34833;DHT22;55941;50.800;4.342;2023-07-08T08:24:06;27.70;89.30
34833;DHT22;55941;50.800;4.342;2023-07-08T08:26:32;27.90;88.00
34833;DHT22;55941;50.800;4.342;2023-07-08T08:28:57;27.80;88.50
34833;DHT22;55941;50.800;4.342;2023-07-08T08:31:23;27.90;89.00
34833;DHT22;55941;50.800;4.342;2023-07-08T08:33:51;28.00;88.30
34833;DHT22;55941;50.800;4.342;2023-07-08T08:36:17;28.10;87.30
34833;DHT22;55941;50.800;4.342;2023-07-08T08:38:43;28.10;86.80
34833;DHT22;55941;50.800;4.342;2023-07-08T08:41:17;28.20;86.90
34833;DHT22;55941;50.800;4.342;2023-07-08T08:43:44;28.20;87.00
34833;DHT22;55941;50.800;4.342;2023-07-08T08:51:46;28.40;86.40
34833;DHT22;55941;50.800;4.342;2023-07-08T08:54:12;28.30;86.20
34833;DHT22;55941;50.800;4.342;2023-07-08T09:01:49;28.60;85.20
34833;DHT22;55941;50.800;4.342;2023-07-08T09:04:27;28.70;84.70
34833;DHT22;55941;50.800;4.342;2023-07-08T09:07:02;28.90;83.40
34833;DHT22;55941;50.800;4.342;2023-07-08T09:09:37;28.80;82.40
34833;DHT22;55941;50.800;4.342;2023-07-08T09:14:34;29.30;77.20
34833;DHT22;55941;50.800;4.342;2023-07-08T09:20:23;29.00;77.90
34833;DHT22;55941;50.800;4.342;2023-07-08T09:22:58;29.00;77.50
34833;DHT22;55941;50.800;4.342;2023-07-08T09:25:34;28.90;78.00
34833;DHT22;55941;50.800;4.342;2023-07-08T09:28:00;28.90;78.20
34833;DHT22;55941;50.800;4.342;2023-07-08T09:30:26;29.10;77.90
34833;DHT22;55941;50.800;4.342;2023-07-08T09:32:54;29.30;77.00
34833;DHT22;55941;50.800;4.342;2023-07-08T09:35:26;29.40;77.00
34833;DHT22;55941;50.800;4.342;2023-07-08T09:37:53;29.50;77.30
34833;DHT22;55941;50.800;4.342;2023-07-08T09:42:53;29.70;77.30
34833;DHT22;55941;50.800;4.342;2023-07-08T09:45:23;29.90;77.00
34833;DHT22;55941;50.800;4.342;2023-07-08T09:47:55;29.90;76.90
34833;DHT22;55941;50.800;4.342;2023-07-08T09:50:27;30.00;76.60
34833;DHT22;55941;50.800;4.342;2023-07-08T09:52:55;30.10;76.30
34833;DHT22;55941;50.800;4.342;2023-07-08T09:55:23;30.20;75.50
34833;DHT22;55941;50.800;4.342;2023-07-08T09:57:50;30.30;74.60
34833;DHT22;55941;50.800;4.342;2023-07-08T10:00:26;30.50;74.20
34833;DHT22;55941;50.800;4.342;2023-07-08T10:02:55;30.30;72.70
34833;DHT22;55941;50.800;4.342;2023-07-08T10:07:57;30.50;73.20
34833;DHT22;55941;50.800;4.342;2023-07-08T10:10:36;30.60;73.80
34833;DHT22;55941;50.800;4.342;2023-07-08T10:13:41;30.70;72.60
34833;DHT22;55941;50.800;4.342;2023-07-08T10:16:13;30.90;74.50
34833;DHT22;55941;50.800;4.342;2023-07-08T10:18:40;31.00;75.20
34833;DHT22;55941;50.800;4.342;2023-07-08T10:26:31;31.30;74.90
34833;DHT22;55941;50.800;4.342;2023-07-08T10:31:27;31.30;73.70
34833;DHT22;55941;50.800;4.342;2023-07-08T10:34:06;31.40;73.50
34833;DHT22;55941;50.800;4.342;2023-07-08T10:54:42;32.20;70.90
34833;DHT22;55941;50.800;4.342;2023-07-08T11:10:40;33.20;68.00
34833;DHT22;55941;50.800;4.342;2023-07-08T11:13:17;33.40;68.10
34833;DHT22;55941;50.800;4.342;2023-07-08T11:21:01;33.90;65.90
34833;DHT22;55941;50.800;4.342;2023-07-08T11:23:43;34.30;65.80
34833;DHT22;55941;50.800;4.342;2023-07-08T11:26:47;34.40;65.90
34833;DHT22;55941;50.800;4.342;2023-07-08T11:29:18;34.70;64.70
34833;DHT22;55941;50.800;4.342;2023-07-08T11:31:46;35.10;67.50
34833;DHT22;55941;50.800;4.342;2023-07-08T11:34:15;35.40;64.00
34833;DHT22;55941;50.800;4.342;2023-07-08T11:36:42;35.60;63.00
34833;DHT22;55941;50.800;4.342;2023-07-08T11:39:44;36.00;64.80
34833;DHT22;55941;50.800;4.342;2023-07-08T11:42:59;36.60;62.50
34833;DHT22;55941;50.800;4.342;2023-07-08T11:45:37;36.80;60.40
34833;DHT22;55941;50.800;4.342;2023-07-08T11:48:12;37.20;59.90
34833;DHT22;55941;50.800;4.342;2023-07-08T11:50:44;37.50;58.40
34833;DHT22;55941;50.800;4.342;2023-07-08T11:53:14;37.90;58.00
34833;DHT22;55941;50.800;4.342;2023-07-08T11:55:59;38.10;58.80
34833;DHT22;55941;50.800;4.342;2023-07-08T11:58:27;38.30;57.20
34833;DHT22;55941;50.800;4.342;2023-07-08T12:01:15;38.50;57.00
34833;DHT22;55941;50.800;4.342;2023-07-08T12:03:49;38.80;56.80
34833;DHT22;55941;50.800;4.342;2023-07-08T12:08:59;39.80;55.20
34833;DHT22;55941;50.800;4.342;2023-07-08T12:11:28;40.30;56.40
34833;DHT22;55941;50.800;4.342;2023-07-08T12:13:59;40.40;53.30
34833;DHT22;55941;50.800;4.342;2023-07-08T12:16:26;40.80;52.80
34833;DHT22;55941;50.800;4.342;2023-07-08T12:18:53;41.30;52.40
34833;DHT22;55941;50.800;4.342;2023-07-08T12:21:22;41.70;51.40
34833;DHT22;55941;50.800;4.342;2023-07-08T12:23:49;41.50;50.80
34833;DHT22;55941;50.800;4.342;2023-07-08T12:26:15;41.30;50.70
34833;DHT22;55941;50.800;4.342;2023-07-08T12:28:42;40.50;50.70
34833;DHT22;55941;50.800;4.342;2023-07-08T12:31:22;39.60;52.20
34833;DHT22;55941;50.800;4.342;2023-07-08T12:33:49;38.60;53.80
34833;DHT22;55941;50.800;4.342;2023-07-08T12:36:19;38.50;54.50
34833;DHT22;55941;50.800;4.342;2023-07-08T12:38:46;38.40;54.50
34833;DHT22;55941;50.800;4.342;2023-07-08T12:41:25;38.70;54.90
34833;DHT22;55941;50.800;4.342;2023-07-08T12:43:52;39.10;55.70
34833;DHT22;55941;50.800;4.342;2023-07-08T12:46:20;39.80;54.90
34833;DHT22;55941;50.800;4.342;2023-07-08T12:48:47;40.40;54.00
34833;DHT22;55941;50.800;4.342;2023-07-08T12:51:18;40.40;54.50
34833;DHT22;55941;50.800;4.342;2023-07-08T12:53:47;39.60;55.80
34833;DHT22;55941;50.800;4.342;2023-07-08T12:56:13;38.10;56.50
34833;DHT22;55941;50.800;4.342;2023-07-08T12:58:53;37.00;56.60
34833;DHT22;55941;50.800;4.342;2023-07-08T13:01:23;36.60;57.20
34833;DHT22;55941;50.800;4.342;2023-07-08T13:03:52;36.10;57.80
34833;DHT22;55941;50.800;4.342;2023-07-08T13:06:22;35.30;59.40
34833;DHT22;55941;50.800;4.342;2023-07-08T13:08:49;35.60;60.30
34833;DHT22;55941;50.800;4.342;2023-07-08T13:11:19;35.80;59.30
34833;DHT22;55941;50.800;4.342;2023-07-08T13:13:59;35.70;58.50
34833;DHT22;55941;50.800;4.342;2023-07-08T13:16:33;35.30;59.20
34833;DHT22;55941;50.800;4.342;2023-07-08T13:19:00;34.80;59.80
34833;DHT22;55941;50.800;4.342;2023-07-08T13:21:27;34.60;61.60
34833;DHT22;55941;50.800;4.342;2023-07-08T13:23:54;34.20;63.00
34833;DHT22;55941;50.800;4.342;2023-07-08T13:26:26;33.80;63.30
34833;DHT22;55941;50.800;4.342;2023-07-08T13:29:04;33.30;64.10
34833;DHT22;55941;50.800;4.342;2023-07-08T13:31:37;33.40;65.00
34833;DHT22;55941;50.800;4.342;2023-07-08T13:34:18;33.20;66.30
34833;DHT22;55941;50.800;4.342;2023-07-08T13:36:46;33.00;67.10
34833;DHT22;55941;50.800;4.342;2023-07-08T13:39:32;32.70;68.40
34833;DHT22;55941;50.800;4.342;2023-07-08T13:41:59;32.80;68.80
34833;DHT22;55941;50.800;4.342;2023-07-08T13:44:25;32.30;69.80
34833;DHT22;55941;50.800;4.342;2023-07-08T13:46:53;32.60;70.60
34833;DHT22;55941;50.800;4.342;2023-07-08T13:49:40;32.70;71.10
34833;DHT22;55941;50.800;4.342;2023-07-08T13:52:18;33.20;70.40
34833;DHT22;55941;50.800;4.342;2023-07-08T13:54:49;33.40;70.00
34833;DHT22;55941;50.800;4.342;2023-07-08T13:57:18;33.70;70.50
34833;DHT22;55941;50.800;4.342;2023-07-08T13:59:46;34.40;67.80
34833;DHT22;55941;50.800;4.342;2023-07-08T14:02:19;34.90;66.50
34833;DHT22;55941;50.800;4.342;2023-07-08T14:04:45;35.40;66.30
34833;DHT22;55941;50.800;4.342;2023-07-08T14:07:21;36.40;63.80
34833;DHT22;55941;50.800;4.342;2023-07-08T14:09:47;37.40;64.90
34833;DHT22;55941;50.800;4.342;2023-07-08T14:12:12;38.40;59.00
34833;DHT22;55941;50.800;4.342;2023-07-08T14:14:38;39.20;58.30
34833;DHT22;55941;50.800;4.342;2023-07-08T14:17:05;39.80;56.60
34833;DHT22;55941;50.800;4.342;2023-07-08T14:19:34;40.40;56.50
34833;DHT22;55941;50.800;4.342;2023-07-08T14:22:09;41.10;54.70
34833;DHT22;55941;50.800;4.342;2023-07-08T14:24:42;41.50;52.40
34833;DHT22;55941;50.800;4.342;2023-07-08T14:27:11;42.00;49.60
34833;DHT22;55941;50.800;4.342;2023-07-08T14:29:40;42.40;49.30
34833;DHT22;55941;50.800;4.342;2023-07-08T14:32:20;42.50;47.90
34833;DHT22;55941;50.800;4.342;2023-07-08T14:34:51;43.00;47.90
34833;DHT22;55941;50.800;4.342;2023-07-08T14:37:17;43.50;47.10
34833;DHT22;55941;50.800;4.342;2023-07-08T14:39:46;43.80;46.70
34833;DHT22;55941;50.800;4.342;2023-07-08T14:42:13;43.80;47.20
34833;DHT22;55941;50.800;4.342;2023-07-08T14:44:40;43.50;49.20
34833;DHT22;55941;50.800;4.342;2023-07-08T14:47:11;43.60;48.50
34833;DHT22;55941;50.800;4.342;2023-07-08T14:49:37;43.50;47.40
34833;DHT22;55941;50.800;4.342;2023-07-08T14:52:03;43.70;47.60
34833;DHT22;55941;50.800;4.342;2023-07-08T14:54:29;43.40;47.20
34833;DHT22;55941;50.800;4.342;2023-07-08T14:56:56;43.60;44.70
34833;DHT22;55941;50.800;4.342;2023-07-08T14:59:24;43.70;45.30
34833;DHT22;55941;50.800;4.342;2023-07-08T15:01:52;44.00;44.40
34833;DHT22;55941;50.800;4.342;2023-07-08T15:04:19;44.00;43.90
34833;DHT22;55941;50.800;4.342;2023-07-08T15:06:46;44.00;45.40
34833;DHT22;55941;50.800;4.342;2023-07-08T15:09:12;44.20;45.00
34833;DHT22;55941;50.800;4.342;2023-07-08T15:11:40;44.30;46.30
34833;DHT22;55941;50.800;4.342;2023-07-08T15:14:18;44.50;45.00
34833;DHT22;55941;50.800;4.342;2023-07-08T15:16:45;43.90;46.20
34833;DHT22;55941;50.800;4.342;2023-07-08T15:19:13;43.00;47.20
34833;DHT22;55941;50.800;4.342;2023-07-08T15:21:39;42.90;48.00
34833;DHT22;55941;50.800;4.342;2023-07-08T15:24:10;42.70;48.20
34833;DHT22;55941;50.800;4.342;2023-07-08T15:26:38;42.90;48.40
34833;DHT22;55941;50.800;4.342;2023-07-08T15:29:04;42.80;48.40
34833;DHT22;55941;50.800;4.342;2023-07-08T15:31:32;42.70;48.50
34833;DHT22;55941;50.800;4.342;2023-07-08T15:33:59;42.40;49.40
34833;DHT22;55941;50.800;4.342;2023-07-08T15:36:25;42.20;49.80
34833;DHT22;55941;50.800;4.342;2023-07-08T15:38:50;42.10;49.50
34833;DHT22;55941;50.800;4.342;2023-07-08T15:41:24;42.60;49.80
34833;DHT22;55941;50.800;4.342;2023-07-08T15:43:53;43.00;49.00
34833;DHT22;55941;50.800;4.342;2023-07-08T15:46:21;42.60;49.10
34833;DHT22;55941;50.800;4.342;2023-07-08T15:48:47;42.00;49.90
34833;DHT22;55941;50.800;4.342;2023-07-08T15:51:14;40.70;51.30
34833;DHT22;55941;50.800;4.342;2023-07-08T15:53:40;40.30;52.40
34833;DHT22;55941;50.800;4.342;2023-07-08T15:56:12;40.90;51.40
34833;DHT22;55941;50.800;4.342;2023-07-08T15:58:38;41.10;50.30
34833;DHT22;55941;50.800;4.342;2023-07-08T16:01:04;40.30;49.90
34833;DHT22;55941;50.800;4.342;2023-07-08T16:03:32;39.00;51.50
34833;DHT22;55941;50.800;4.342;2023-07-08T16:06:00;38.70;52.70
34833;DHT22;55941;50.800;4.342;2023-07-08T16:08:26;38.80;52.50
34833;DHT22;55941;50.800;4.342;2023-07-08T16:10:57;39.10;53.00
34833;DHT22;55941;50.800;4.342;2023-07-08T16:13:28;38.60;53.20
34833;DHT22;55941;50.800;4.342;2023-07-08T16:15:54;38.10;54.40
34833;DHT22;55941;50.800;4.342;2023-07-08T16:18:20;37.50;55.30
34833;DHT22;55941;50.800;4.342;2023-07-08T16:20:47;37.10;55.30
34833;DHT22;55941;50.800;4.342;2023-07-08T16:23:13;36.60;56.20
34833;DHT22;55941;50.800;4.342;2023-07-08T16:25:50;36.30;57.10
34833;DHT22;55941;50.800;4.342;2023-07-08T16:28:40;36.10;57.80
34833;DHT22;55941;50.800;4.342;2023-07-08T16:31:19;36.00;56.20
34833;DHT22;55941;50.800;4.342;2023-07-08T16:33:46;36.00;55.80
34833;DHT22;55941;50.800;4.342;2023-07-08T16:36:14;36.00;56.70
34833;DHT22;55941;50.800;4.342;2023-07-08T16:38:40;35.60;57.20
34833;DHT22;55941;50.800;4.342;2023-07-08T16:41:14;35.60;57.70
34833;DHT22;55941;50.800;4.342;2023-07-08T16:43:40;35.80;57.30
34833;DHT22;55941;50.800;4.342;2023-07-08T16:46:11;36.00;56.40
34833;DHT22;55941;50.800;4.342;2023-07-08T16:48:38;36.50;54.90
34833;DHT22;55941;50.800;4.342;2023-07-08T16:51:17;37.30;54.80